sensor_id;sensor_type;location;lat;lon;timestamp;temperature;humidity
10233;DHT22;5161;48.174;11.756;2023-04-25T00:01:57;10.60;62.20
10233;DHT22;5161;48.174;11.756;2023-04-25T00:04:23;10.60;62.30
10233;DHT22;5161;48.174;11.756;2023-04-25T00:06:48;10.60;62.60
10233;DHT22;5161;48.174;11.756;2023-04-25T00:09:14;10.60;62.40
10233;DHT22;5161;48.174;11.756;2023-04-25T00:11:40;10.60;62.50
10233;DHT22;5161;48.174;11.756;2023-04-25T00:14:19;10.60;62.50
10233;DHT22;5161;48.174;11.756;2023-04-25T00:17:00;10.50;62.80
10233;DHT22;5161;48.174;11.756;2023-04-25T00:19:31;10.60;62.90
10233;DHT22;5161;48.174;11.756;2023-04-25T00:22:03;10.60;62.40
10233;DHT22;5161;48.174;11.756;2023-04-25T00:24:34;10.60;62.60
10233;DHT22;5161;48.174;11.756;2023-04-25T00:27:00;10.60;62.60
10233;DHT22;5161;48.174;11.756;2023-04-25T00:29:25;10.60;62.70
10233;DHT22;5161;48.174;11.756;2023-04-25T00:31:51;10.60;62.80
10233;DHT22;5161;48.174;11.756;2023-04-25T00:34:16;10.60;62.80
10233;DHT22;5161;48.174;11.756;2023-04-25T00:36:42;10.60;62.80
10233;DHT22;5161;48.174;11.756;2023-04-25T00:39:08;10.60;62.80
10233;DHT22;5161;48.174;11.756;2023-04-25T00:41:33;10.60;62.70
10233;DHT22;5161;48.174;11.756;2023-04-25T00:43:59;10.60;62.90
10233;DHT22;5161;48.174;11.756;2023-04-25T00:46:32;10.50;62.60
10233;DHT22;5161;48.174;11.756;2023-04-25T00:48:58;10.60;62.90
10233;DHT22;5161;48.174;11.756;2023-04-25T00:51:26;10.60;63.20
10233;DHT22;5161;48.174;11.756;2023-04-25T00:53:56;10.60;63.10
10233;DHT22;5161;48.174;11.756;2023-04-25T00:56:22;10.60;62.90
10233;DHT22;5161;48.174;11.756;2023-04-25T00:58:55;10.60;63.10
10233;DHT22;5161;48.174;11.756;2023-04-25T01:01:24;10.60;63.40
10233;DHT22;5161;48.174;11.756;2023-04-25T01:03:54;10.60;63.00
10233;DHT22;5161;48.174;11.756;2023-04-25T01:06:20;10.60;63.60
10233;DHT22;5161;48.174;11.756;2023-04-25T01:08:53;10.60;63.30
10233;DHT22;5161;48.174;11.756;2023-04-25T01:11:19;10.60;63.30
10233;DHT22;5161;48.174;11.756;2023-04-25T01:13:45;10.60;63.30
10233;DHT22;5161;48.174;11.756;2023-04-25T01:16:11;10.70;63.40
10233;DHT22;5161;48.174;11.756;2023-04-25T01:18:46;10.60;63.20
10233;DHT22;5161;48.174;11.756;2023-04-25T01:21:15;10.60;63.40
10233;DHT22;5161;48.174;11.756;2023-04-25T01:23:44;10.50;63.50
10233;DHT22;5161;48.174;11.756;2023-04-25T01:26:11;10.50;63.20
10233;DHT22;5161;48.174;11.756;2023-04-25T01:28:41;10.50;63.30
10233;DHT22;5161;48.174;11.756;2023-04-25T01:31:13;10.50;63.30
10233;DHT22;5161;48.174;11.756;2023-04-25T01:33:39;10.50;63.30
10233;DHT22;5161;48.174;11.756;2023-04-25T01:36:09;10.50;63.70
10233;DHT22;5161;48.174;11.756;2023-04-25T01:38:38;10.50;63.40
10233;DHT22;5161;48.174;11.756;2023-04-25T01:41:04;10.50;63.20
10233;DHT22;5161;48.174;11.756;2023-04-25T01:43:30;10.50;63.40
10233;DHT22;5161;48.174;11.756;2023-04-25T01:45:59;10.50;63.20
10233;DHT22;5161;48.174;11.756;2023-04-25T01:48:25;10.40;63.00
10233;DHT22;5161;48.174;11.756;2023-04-25T01:50:51;10.40;63.50
10233;DHT22;5161;48.174;11.756;2023-04-25T01:53:16;10.40;63.30
10233;DHT22;5161;48.174;11.756;2023-04-25T01:55:42;10.40;63.40
10233;DHT22;5161;48.174;11.756;2023-04-25T01:58:13;10.40;63.30
10233;DHT22;5161;48.174;11.756;2023-04-25T02:00:39;10.30;63.30
10233;DHT22;5161;48.174;11.756;2023-04-25T02:03:06;10.40;63.20
10233;DHT22;5161;48.174;11.756;2023-04-25T02:05:37;10.40;63.80
10233;DHT22;5161;48.174;11.756;2023-04-25T02:08:06;10.30;63.20
10233;DHT22;5161;48.174;11.756;2023-04-25T02:10:41;10.30;64.10
10233;DHT22;5161;48.174;11.756;2023-04-25T02:13:06;10.30;63.30
10233;DHT22;5161;48.174;11.756;2023-04-25T02:15:32;10.20;63.30
10233;DHT22;5161;48.174;11.756;2023-04-25T02:17:58;10.30;63.50
10233;DHT22;5161;48.174;11.756;2023-04-25T02:20:25;10.30;63.30
10233;DHT22;5161;48.174;11.756;2023-04-25T02:22:51;10.30;63.40
10233;DHT22;5161;48.174;11.756;2023-04-25T02:25:18;10.30;63.20
10233;DHT22;5161;48.174;11.756;2023-04-25T02:27:45;10.40;63.40
10233;DHT22;5161;48.174;11.756;2023-04-25T02:30:11;10.30;63.30
10233;DHT22;5161;48.174;11.756;2023-04-25T02:32:37;10.30;63.20
10233;DHT22;5161;48.174;11.756;2023-04-25T02:35:03;10.30;63.20
10233;DHT22;5161;48.174;11.756;2023-04-25T02:37:29;10.30;63.30
10233;DHT22;5161;48.174;11.756;2023-04-25T02:39:55;10.30;63.30
10233;DHT22;5161;48.174;11.756;2023-04-25T02:42:34;10.30;63.20
10233;DHT22;5161;48.174;11.756;2023-04-25T02:45:07;10.30;63.20
10233;DHT22;5161;48.174;11.756;2023-04-25T02:47:40;10.30;63.30
10233;DHT22;5161;48.174;11.756;2023-04-25T02:50:14;10.30;63.30
10233;DHT22;5161;48.174;11.756;2023-04-25T02:52:46;10.20;63.30
10233;DHT22;5161;48.174;11.756;2023-04-25T02:55:14;10.20;63.00
10233;DHT22;5161;48.174;11.756;2023-04-25T02:57:43;10.20;63.30
10233;DHT22;5161;48.174;11.756;2023-04-25T03:00:12;10.10;63.00
10233;DHT22;5161;48.174;11.756;2023-04-25T03:02:41;10.10;63.30
10233;DHT22;5161;48.174;11.756;2023-04-25T03:05:09;10.10;63.00
10233;DHT22;5161;48.174;11.756;2023-04-25T03:07:40;10.10;63.10
10233;DHT22;5161;48.174;11.756;2023-04-25T03:10:09;10.10;63.50
10233;DHT22;5161;48.174;11.756;2023-04-25T03:12:35;10.00;63.20
10233;DHT22;5161;48.174;11.756;2023-04-25T03:15:01;10.10;63.30
10233;DHT22;5161;48.174;11.756;2023-04-25T03:17:32;10.10;63.40
10233;DHT22;5161;48.174;11.756;2023-04-25T03:20:06;10.00;63.20
10233;DHT22;5161;48.174;11.756;2023-04-25T03:22:33;10.10;63.20
10233;DHT22;5161;48.174;11.756;2023-04-25T03:25:08;10.00;63.00
10233;DHT22;5161;48.174;11.756;2023-04-25T03:27:34;10.10;63.40
10233;DHT22;5161;48.174;11.756;2023-04-25T03:30:00;10.10;63.60
10233;DHT22;5161;48.174;11.756;2023-04-25T03:32:28;10.10;63.70
10233;DHT22;5161;48.174;11.756;2023-04-25T03:34:54;10.00;63.90
10233;DHT22;5161;48.174;11.756;2023-04-25T03:37:27;10.10;63.80
10233;DHT22;5161;48.174;11.756;2023-04-25T03:39:55;10.10;63.70
10233;DHT22;5161;48.174;11.756;2023-04-25T03:42:21;10.00;63.80
10233;DHT22;5161;48.174;11.756;2023-04-25T03:44:52;10.10;64.30
10233;DHT22;5161;48.174;11.756;2023-04-25T03:47:24;9.90;65.80
10233;DHT22;5161;48.174;11.756;2023-04-25T03:49:49;9.80;66.00
10233;DHT22;5161;48.174;11.756;2023-04-25T03:52:17;9.80;65.20
10233;DHT22;5161;48.174;11.756;2023-04-25T03:54:42;9.80;65.60
10233;DHT22;5161;48.174;11.756;2023-04-25T03:57:08;9.90;65.60
10233;DHT22;5161;48.174;11.756;2023-04-25T03:59:33;9.90;65.40
10233;DHT22;5161;48.174;11.756;2023-04-25T04:01:59;9.90;65.20
10233;DHT22;5161;48.174;11.756;2023-04-25T04:04:25;9.90;65.70
10233;DHT22;5161;48.174;11.756;2023-04-25T04:06:50;9.90;65.30
10233;DHT22;5161;48.174;11.756;2023-04-25T04:09:26;10.00;64.40
10233;DHT22;5161;48.174;11.756;2023-04-25T04:11:56;10.00;64.40
10233;DHT22;5161;48.174;11.756;2023-04-25T04:14:28;10.00;64.30
10233;DHT22;5161;48.174;11.756;2023-04-25T04:16:59;9.90;65.10
10233;DHT22;5161;48.174;11.756;2023-04-25T04:19:28;9.80;65.10
10233;DHT22;5161;48.174;11.756;2023-04-25T04:21:56;9.80;65.30
10233;DHT22;5161;48.174;11.756;2023-04-25T04:24:32;9.70;65.20
10233;DHT22;5161;48.174;11.756;2023-04-25T04:26:58;9.80;65.30
10233;DHT22;5161;48.174;11.756;2023-04-25T04:29:26;9.80;65.40
10233;DHT22;5161;48.174;11.756;2023-04-25T04:31:55;9.80;65.40
10233;DHT22;5161;48.174;11.756;2023-04-25T04:34:26;9.80;65.20
10233;DHT22;5161;48.174;11.756;2023-04-25T04:36:59;9.70;65.80
10233;DHT22;5161;48.174;11.756;2023-04-25T04:39:25;9.70;65.40
10233;DHT22;5161;48.174;11.756;2023-04-25T04:41:51;9.60;65.70
10233;DHT22;5161;48.174;11.756;2023-04-25T04:44:19;9.70;65.60
10233;DHT22;5161;48.174;11.756;2023-04-25T04:46:46;9.60;65.80
10233;DHT22;5161;48.174;11.756;2023-04-25T04:49:14;9.50;65.20
10233;DHT22;5161;48.174;11.756;2023-04-25T04:51:40;9.60;65.50
10233;DHT22;5161;48.174;11.756;2023-04-25T04:54:06;9.70;65.60
10233;DHT22;5161;48.174;11.756;2023-04-25T04:56:35;9.70;65.60
10233;DHT22;5161;48.174;11.756;2023-04-25T04:59:05;9.70;66.10
10233;DHT22;5161;48.174;11.756;2023-04-25T05:01:48;9.70;66.40
10233;DHT22;5161;48.174;11.756;2023-04-25T05:04:22;9.70;66.40
10233;DHT22;5161;48.174;11.756;2023-04-25T05:06:54;9.60;66.80
10233;DHT22;5161;48.174;11.756;2023-04-25T05:09:22;9.70;67.00
10233;DHT22;5161;48.174;11.756;2023-04-25T05:11:58;9.70;66.90
10233;DHT22;5161;48.174;11.756;2023-04-25T05:14:31;9.60;67.20
10233;DHT22;5161;48.174;11.756;2023-04-25T05:16:59;9.50;66.40
10233;DHT22;5161;48.174;11.756;2023-04-25T05:19:25;9.60;66.70
10233;DHT22;5161;48.174;11.756;2023-04-25T05:22:06;9.60;66.90
10233;DHT22;5161;48.174;11.756;2023-04-25T05:24:35;9.60;67.20
10233;DHT22;5161;48.174;11.756;2023-04-25T05:27:12;9.60;66.40
10233;DHT22;5161;48.174;11.756;2023-04-25T05:29:44;9.60;67.30
10233;DHT22;5161;48.174;11.756;2023-04-25T05:32:12;9.60;67.20
10233;DHT22;5161;48.174;11.756;2023-04-25T05:34:43;9.60;67.00
10233;DHT22;5161;48.174;11.756;2023-04-25T05:37:13;9.60;67.30
10233;DHT22;5161;48.174;11.756;2023-04-25T05:39:42;9.60;67.40
10233;DHT22;5161;48.174;11.756;2023-04-25T05:42:31;9.70;66.70
10233;DHT22;5161;48.174;11.756;2023-04-25T05:45:03;9.60;66.90
10233;DHT22;5161;48.174;11.756;2023-04-25T05:47:38;9.70;67.40
10233;DHT22;5161;48.174;11.756;2023-04-25T05:50:27;9.80;67.50
10233;DHT22;5161;48.174;11.756;2023-04-25T05:53:11;9.70;67.20
10233;DHT22;5161;48.174;11.756;2023-04-25T05:56:00;9.70;67.10
10233;DHT22;5161;48.174;11.756;2023-04-25T05:59:05;9.70;67.00
10233;DHT22;5161;48.174;11.756;2023-04-25T06:01:36;9.70;67.50
10233;DHT22;5161;48.174;11.756;2023-04-25T06:04:11;9.80;67.60
10233;DHT22;5161;48.174;11.756;2023-04-25T06:06:52;9.90;67.80
10233;DHT22;5161;48.174;11.756;2023-04-25T06:09:40;9.90;67.70
10233;DHT22;5161;48.174;11.756;2023-04-25T06:12:14;9.90;67.50
10233;DHT22;5161;48.174;11.756;2023-04-25T06:15:09;9.90;67.00
10233;DHT22;5161;48.174;11.756;2023-04-25T06:17:45;9.90;67.30
10233;DHT22;5161;48.174;11.756;2023-04-25T06:20:22;9.90;66.90
10233;DHT22;5161;48.174;11.756;2023-04-25T06:23:25;9.90;67.10
10233;DHT22;5161;48.174;11.756;2023-04-25T06:26:01;9.70;67.00
10233;DHT22;5161;48.174;11.756;2023-04-25T06:28:47;9.70;67.20
10233;DHT22;5161;48.174;11.756;2023-04-25T06:31:21;9.80;67.20
10233;DHT22;5161;48.174;11.756;2023-04-25T06:33:53;9.50;67.10
10233;DHT22;5161;48.174;11.756;2023-04-25T06:36:26;9.40;67.50
10233;DHT22;5161;48.174;11.756;2023-04-25T06:39:07;9.30;67.70
10233;DHT22;5161;48.174;11.756;2023-04-25T06:41:52;9.30;68.30
10233;DHT22;5161;48.174;11.756;2023-04-25T06:44:21;9.40;68.10
10233;DHT22;5161;48.174;11.756;2023-04-25T06:46:56;9.50;67.90
10233;DHT22;5161;48.174;11.756;2023-04-25T06:49:34;9.50;68.00
10233;DHT22;5161;48.174;11.756;2023-04-25T06:52:38;9.50;68.00
10233;DHT22;5161;48.174;11.756;2023-04-25T06:58:05;9.60;68.50
10233;DHT22;5161;48.174;11.756;2023-04-25T07:00:47;9.60;68.60
10233;DHT22;5161;48.174;11.756;2023-04-25T07:03:21;9.70;69.00
10233;DHT22;5161;48.174;11.756;2023-04-25T07:06:13;9.70;68.90
10233;DHT22;5161;48.174;11.756;2023-04-25T07:08:44;9.70;69.30
10233;DHT22;5161;48.174;11.756;2023-04-25T07:11:39;9.70;69.00
10233;DHT22;5161;48.174;11.756;2023-04-25T07:14:07;9.80;69.30
10233;DHT22;5161;48.174;11.756;2023-04-25T07:16:39;9.80;69.60
10233;DHT22;5161;48.174;11.756;2023-04-25T07:19:27;9.80;69.10
10233;DHT22;5161;48.174;11.756;2023-04-25T07:22:09;9.80;69.40
10233;DHT22;5161;48.174;11.756;2023-04-25T07:24:57;9.90;70.00
10233;DHT22;5161;48.174;11.756;2023-04-25T07:27:23;10.00;68.50
10233;DHT22;5161;48.174;11.756;2023-04-25T07:29:51;10.00;68.20
10233;DHT22;5161;48.174;11.756;2023-04-25T07:32:19;10.00;68.40
10233;DHT22;5161;48.174;11.756;2023-04-25T07:34:56;10.00;68.50
10233;DHT22;5161;48.174;11.756;2023-04-25T07:37:43;10.10;68.50
10233;DHT22;5161;48.174;11.756;2023-04-25T07:40:35;10.10;68.30
10233;DHT22;5161;48.174;11.756;2023-04-25T07:43:01;10.20;68.70
10233;DHT22;5161;48.174;11.756;2023-04-25T07:45:59;10.20;67.60
10233;DHT22;5161;48.174;11.756;2023-04-25T07:48:37;10.10;68.00
10233;DHT22;5161;48.174;11.756;2023-04-25T07:51:08;10.10;68.30
10233;DHT22;5161;48.174;11.756;2023-04-25T07:56:30;10.10;68.50
10233;DHT22;5161;48.174;11.756;2023-04-25T07:58:59;10.20;68.20
10233;DHT22;5161;48.174;11.756;2023-04-25T08:01:29;10.20;68.40
10233;DHT22;5161;48.174;11.756;2023-04-25T08:04:11;10.30;69.00
10233;DHT22;5161;48.174;11.756;2023-04-25T08:06:57;10.20;68.70
10233;DHT22;5161;48.174;11.756;2023-04-25T08:09:46;10.30;68.30
10233;DHT22;5161;48.174;11.756;2023-04-25T08:12:23;10.30;67.90
10233;DHT22;5161;48.174;11.756;2023-04-25T08:15:00;10.20;67.70
10233;DHT22;5161;48.174;11.756;2023-04-25T08:18:02;10.30;68.20
10233;DHT22;5161;48.174;11.756;2023-04-25T08:23:41;10.40;68.40
10233;DHT22;5161;48.174;11.756;2023-04-25T08:26:52;10.40;67.30
10233;DHT22;5161;48.174;11.756;2023-04-25T08:29:18;10.40;68.10
10233;DHT22;5161;48.174;11.756;2023-04-25T08:31:49;10.50;68.10
10233;DHT22;5161;48.174;11.756;2023-04-25T08:34:23;10.60;67.90
10233;DHT22;5161;48.174;11.756;2023-04-25T08:36:55;10.60;67.80
10233;DHT22;5161;48.174;11.756;2023-04-25T08:39:23;10.70;68.50
10233;DHT22;5161;48.174;11.756;2023-04-25T08:41:51;10.80;68.50
10233;DHT22;5161;48.174;11.756;2023-04-25T08:44:24;10.90;68.40
10233;DHT22;5161;48.174;11.756;2023-04-25T08:47:05;11.00;68.10
10233;DHT22;5161;48.174;11.756;2023-04-25T08:49:45;11.10;68.80
10233;DHT22;5161;48.174;11.756;2023-04-25T08:52:23;11.10;67.30
10233;DHT22;5161;48.174;11.756;2023-04-25T08:54:51;11.10;67.60
10233;DHT22;5161;48.174;11.756;2023-04-25T08:59:52;11.20;67.30
10233;DHT22;5161;48.174;11.756;2023-04-25T09:02:18;11.20;67.20
10233;DHT22;5161;48.174;11.756;2023-04-25T09:04:46;11.20;66.90
10233;DHT22;5161;48.174;11.756;2023-04-25T09:07:12;11.20;65.90
10233;DHT22;5161;48.174;11.756;2023-04-25T09:09:37;11.10;66.90
10233;DHT22;5161;48.174;11.756;2023-04-25T09:12:03;11.00;65.90
10233;DHT22;5161;48.174;11.756;2023-04-25T09:14:29;11.10;66.00
10233;DHT22;5161;48.174;11.756;2023-04-25T09:19:23;11.20;65.80
10233;DHT22;5161;48.174;11.756;2023-04-25T09:21:53;11.30;64.90
10233;DHT22;5161;48.174;11.756;2023-04-25T09:24:37;11.40;63.80
10233;DHT22;5161;48.174;11.756;2023-04-25T09:27:08;11.40;62.90
10233;DHT22;5161;48.174;11.756;2023-04-25T09:29:35;11.40;63.80
10233;DHT22;5161;48.174;11.756;2023-04-25T09:32:20;11.50;62.50
10233;DHT22;5161;48.174;11.756;2023-04-25T09:34:48;11.40;62.10
10233;DHT22;5161;48.174;11.756;2023-04-25T09:39:46;11.60;63.20
10233;DHT22;5161;48.174;11.756;2023-04-25T09:42:15;11.70;63.90
10233;DHT22;5161;48.174;11.756;2023-04-25T09:44:43;11.80;63.60
10233;DHT22;5161;48.174;11.756;2023-04-25T09:47:10;11.90;62.80
10233;DHT22;5161;48.174;11.756;2023-04-25T09:49:40;11.90;62.70
10233;DHT22;5161;48.174;11.756;2023-04-25T09:52:07;11.90;62.20
10233;DHT22;5161;48.174;11.756;2023-04-25T09:54:32;11.90;62.70
10233;DHT22;5161;48.174;11.756;2023-04-25T09:57:09;11.90;62.30
10233;DHT22;5161;48.174;11.756;2023-04-25T09:59:39;12.00;61.80
10233;DHT22;5161;48.174;11.756;2023-04-25T10:02:06;12.00;61.60
10233;DHT22;5161;48.174;11.756;2023-04-25T10:04:34;11.90;60.20
10233;DHT22;5161;48.174;11.756;2023-04-25T10:07:01;11.90;60.40
10233;DHT22;5161;48.174;11.756;2023-04-25T10:09:29;12.00;61.10
10233;DHT22;5161;48.174;11.756;2023-04-25T10:11:59;12.10;61.50
10233;DHT22;5161;48.174;11.756;2023-04-25T10:14:26;12.20;61.60
10233;DHT22;5161;48.174;11.756;2023-04-25T10:16:53;12.20;61.20
10233;DHT22;5161;48.174;11.756;2023-04-25T10:19:20;12.30;60.20
10233;DHT22;5161;48.174;11.756;2023-04-25T10:25:07;12.30;58.10
10233;DHT22;5161;48.174;11.756;2023-04-25T10:27:34;12.30;59.20
10233;DHT22;5161;48.174;11.756;2023-04-25T10:30:08;12.40;60.30
10233;DHT22;5161;48.174;11.756;2023-04-25T10:32:38;12.50;58.90
10233;DHT22;5161;48.174;11.756;2023-04-25T10:35:17;12.50;60.00
10233;DHT22;5161;48.174;11.756;2023-04-25T10:40:25;12.60;59.40
10233;DHT22;5161;48.174;11.756;2023-04-25T10:42:54;12.60;59.00
10233;DHT22;5161;48.174;11.756;2023-04-25T10:45:21;12.60;59.00
10233;DHT22;5161;48.174;11.756;2023-04-25T10:47:47;12.60;59.60
10233;DHT22;5161;48.174;11.756;2023-04-25T10:50:15;12.70;59.10
10233;DHT22;5161;48.174;11.756;2023-04-25T10:52:43;12.70;58.70
10233;DHT22;5161;48.174;11.756;2023-04-25T10:55:12;12.70;59.30
10233;DHT22;5161;48.174;11.756;2023-04-25T11:00:09;12.70;59.30
10233;DHT22;5161;48.174;11.756;2023-04-25T11:02:52;12.70;58.90
10233;DHT22;5161;48.174;11.756;2023-04-25T11:05:33;12.60;58.90
10233;DHT22;5161;48.174;11.756;2023-04-25T11:08:00;12.40;59.00
10233;DHT22;5161;48.174;11.756;2023-04-25T11:10:28;12.20;58.20
10233;DHT22;5161;48.174;11.756;2023-04-25T11:12:54;12.00;58.70
10233;DHT22;5161;48.174;11.756;2023-04-25T11:15:20;11.80;60.10
10233;DHT22;5161;48.174;11.756;2023-04-25T11:17:46;11.70;60.60
10233;DHT22;5161;48.174;11.756;2023-04-25T11:20:12;11.60;61.40
10233;DHT22;5161;48.174;11.756;2023-04-25T11:22:40;11.50;63.30
10233;DHT22;5161;48.174;11.756;2023-04-25T11:25:10;11.50;63.00
10233;DHT22;5161;48.174;11.756;2023-04-25T11:27:50;11.40;63.90
10233;DHT22;5161;48.174;11.756;2023-04-25T11:30:17;11.40;63.10
10233;DHT22;5161;48.174;11.756;2023-04-25T11:32:43;11.40;63.40
10233;DHT22;5161;48.174;11.756;2023-04-25T11:35:09;11.30;64.70
10233;DHT22;5161;48.174;11.756;2023-04-25T11:37:35;11.20;63.70
10233;DHT22;5161;48.174;11.756;2023-04-25T11:40:02;11.20;64.20
10233;DHT22;5161;48.174;11.756;2023-04-25T11:42:28;11.20;63.80
10233;DHT22;5161;48.174;11.756;2023-04-25T11:44:55;11.10;64.70
10233;DHT22;5161;48.174;11.756;2023-04-25T11:47:30;11.10;64.60
10233;DHT22;5161;48.174;11.756;2023-04-25T11:49:58;11.10;64.50
10233;DHT22;5161;48.174;11.756;2023-04-25T11:52:34;11.10;64.20
10233;DHT22;5161;48.174;11.756;2023-04-25T11:55:00;11.10;64.80
10233;DHT22;5161;48.174;11.756;2023-04-25T11:57:25;11.20;64.80
10233;DHT22;5161;48.174;11.756;2023-04-25T11:59:51;11.20;64.90
10233;DHT22;5161;48.174;11.756;2023-04-25T12:02:26;11.20;64.30
10233;DHT22;5161;48.174;11.756;2023-04-25T12:04:52;11.20;64.30
10233;DHT22;5161;48.174;11.756;2023-04-25T12:07:17;11.30;65.60
10233;DHT22;5161;48.174;11.756;2023-04-25T12:09:51;11.40;65.30
10233;DHT22;5161;48.174;11.756;2023-04-25T12:12:17;11.40;65.50
10233;DHT22;5161;48.174;11.756;2023-04-25T12:14:47;11.40;65.30
10233;DHT22;5161;48.174;11.756;2023-04-25T12:17:16;11.50;65.40
10233;DHT22;5161;48.174;11.756;2023-04-25T12:19:42;11.40;65.30
10233;DHT22;5161;48.174;11.756;2023-04-25T12:22:21;11.40;65.30
10233;DHT22;5161;48.174;11.756;2023-04-25T12:24:46;11.30;65.30
10233;DHT22;5161;48.174;11.756;2023-04-25T12:27:15;11.10;65.80
10233;DHT22;5161;48.174;11.756;2023-04-25T12:29:51;11.00;66.30
10233;DHT22;5161;48.174;11.756;2023-04-25T12:32:16;11.00;66.00
10233;DHT22;5161;48.174;11.756;2023-04-25T12:34:43;10.90;66.00
10233;DHT22;5161;48.174;11.756;2023-04-25T12:37:09;10.90;66.70
10233;DHT22;5161;48.174;11.756;2023-04-25T12:39:34;10.80;66.90
10233;DHT22;5161;48.174;11.756;2023-04-25T12:42:00;10.70;68.00
10233;DHT22;5161;48.174;11.756;2023-04-25T12:44:26;10.60;67.20
10233;DHT22;5161;48.174;11.756;2023-04-25T12:46:52;10.60;68.00
10233;DHT22;5161;48.174;11.756;2023-04-25T12:49:18;10.50;67.20
10233;DHT22;5161;48.174;11.756;2023-04-25T12:51:43;10.50;68.50
10233;DHT22;5161;48.174;11.756;2023-04-25T12:54:09;10.40;68.10
10233;DHT22;5161;48.174;11.756;2023-04-25T12:56:35;10.40;69.00
10233;DHT22;5161;48.174;11.756;2023-04-25T12:59:02;10.40;67.80
10233;DHT22;5161;48.174;11.756;2023-04-25T13:01:28;10.40;67.70
10233;DHT22;5161;48.174;11.756;2023-04-25T13:03:54;10.40;67.90
10233;DHT22;5161;48.174;11.756;2023-04-25T13:06:20;10.40;68.10
10233;DHT22;5161;48.174;11.756;2023-04-25T13:08:46;10.30;68.50
10233;DHT22;5161;48.174;11.756;2023-04-25T13:11:12;10.40;68.80
10233;DHT22;5161;48.174;11.756;2023-04-25T13:13:38;10.40;69.00
10233;DHT22;5161;48.174;11.756;2023-04-25T13:16:05;10.40;68.60
10233;DHT22;5161;48.174;11.756;2023-04-25T13:18:31;10.40;68.60
10233;DHT22;5161;48.174;11.756;2023-04-25T13:20:58;10.40;68.60
10233;DHT22;5161;48.174;11.756;2023-04-25T13:23:26;10.40;68.70
10233;DHT22;5161;48.174;11.756;2023-04-25T13:25:52;10.40;69.10
10233;DHT22;5161;48.174;11.756;2023-04-25T13:28:17;10.40;69.10
10233;DHT22;5161;48.174;11.756;2023-04-25T13:30:43;10.40;69.10
10233;DHT22;5161;48.174;11.756;2023-04-25T13:33:09;10.30;69.10
10233;DHT22;5161;48.174;11.756;2023-04-25T13:35:36;10.30;68.90
10233;DHT22;5161;48.174;11.756;2023-04-25T13:38:02;10.30;68.80
10233;DHT22;5161;48.174;11.756;2023-04-25T13:40:28;10.20;68.80
10233;DHT22;5161;48.174;11.756;2023-04-25T13:42:55;10.10;68.70
10233;DHT22;5161;48.174;11.756;2023-04-25T13:45:21;10.10;68.90
10233;DHT22;5161;48.174;11.756;2023-04-25T13:47:46;10.00;68.90
10233;DHT22;5161;48.174;11.756;2023-04-25T13:50:12;10.00;68.80
10233;DHT22;5161;48.174;11.756;2023-04-25T13:52:39;9.90;69.50
10233;DHT22;5161;48.174;11.756;2023-04-25T13:55:05;9.90;70.10
10233;DHT22;5161;48.174;11.756;2023-04-25T13:57:32;9.90;69.90
10233;DHT22;5161;48.174;11.756;2023-04-25T13:59:58;9.90;70.20
10233;DHT22;5161;48.174;11.756;2023-04-25T14:02:24;9.90;70.20
10233;DHT22;5161;48.174;11.756;2023-04-25T14:04:50;10.00;69.00
10233;DHT22;5161;48.174;11.756;2023-04-25T14:07:16;10.00;69.80
10233;DHT22;5161;48.174;11.756;2023-04-25T14:09:41;9.90;70.30
10233;DHT22;5161;48.174;11.756;2023-04-25T14:12:07;9.90;70.00
10233;DHT22;5161;48.174;11.756;2023-04-25T14:14:33;9.80;70.40
10233;DHT22;5161;48.174;11.756;2023-04-25T14:16:58;9.80;70.10
10233;DHT22;5161;48.174;11.756;2023-04-25T14:19:24;9.70;70.20
10233;DHT22;5161;48.174;11.756;2023-04-25T14:21:49;9.80;70.60
10233;DHT22;5161;48.174;11.756;2023-04-25T14:24:15;9.90;70.70
10233;DHT22;5161;48.174;11.756;2023-04-25T14:26:41;9.90;71.70
10233;DHT22;5161;48.174;11.756;2023-04-25T14:29:08;9.90;71.20
10233;DHT22;5161;48.174;11.756;2023-04-25T14:31:34;9.80;70.50
10233;DHT22;5161;48.174;11.756;2023-04-25T14:34:01;9.80;71.10
10233;DHT22;5161;48.174;11.756;2023-04-25T14:36:28;9.70;71.30
10233;DHT22;5161;48.174;11.756;2023-04-25T14:38:54;9.70;71.80
10233;DHT22;5161;48.174;11.756;2023-04-25T14:41:20;9.70;71.60
10233;DHT22;5161;48.174;11.756;2023-04-25T14:43:46;9.70;72.80
10233;DHT22;5161;48.174;11.756;2023-04-25T14:46:12;9.70;72.00
10233;DHT22;5161;48.174;11.756;2023-04-25T14:48:38;9.70;72.30
10233;DHT22;5161;48.174;11.756;2023-04-25T14:51:04;9.70;72.10
10233;DHT22;5161;48.174;11.756;2023-04-25T14:53:30;9.80;72.10
10233;DHT22;5161;48.174;11.756;2023-04-25T14:55:55;9.80;72.50
10233;DHT22;5161;48.174;11.756;2023-04-25T14:58:21;9.80;72.60
10233;DHT22;5161;48.174;11.756;2023-04-25T15:00:46;9.90;72.50
10233;DHT22;5161;48.174;11.756;2023-04-25T15:03:12;9.90;72.60
10233;DHT22;5161;48.174;11.756;2023-04-25T15:05:39;10.00;71.70
10233;DHT22;5161;48.174;11.756;2023-04-25T15:08:05;10.10;72.60
10233;DHT22;5161;48.174;11.756;2023-04-25T15:10:31;10.10;71.70
10233;DHT22;5161;48.174;11.756;2023-04-25T15:12:56;10.10;71.90
10233;DHT22;5161;48.174;11.756;2023-04-25T15:15:22;10.10;71.90
10233;DHT22;5161;48.174;11.756;2023-04-25T15:17:49;10.10;71.80
10233;DHT22;5161;48.174;11.756;2023-04-25T15:20:15;10.10;71.90
10233;DHT22;5161;48.174;11.756;2023-04-25T15:22:42;10.10;72.10
10233;DHT22;5161;48.174;11.756;2023-04-25T15:25:09;10.10;71.70
10233;DHT22;5161;48.174;11.756;2023-04-25T15:27:39;10.30;72.10
10233;DHT22;5161;48.174;11.756;2023-04-25T15:30:13;10.30;71.50
10233;DHT22;5161;48.174;11.756;2023-04-25T15:32:41;10.30;71.20
10233;DHT22;5161;48.174;11.756;2023-04-25T15:35:07;10.30;71.60
10233;DHT22;5161;48.174;11.756;2023-04-25T15:37:33;10.30;71.60
10233;DHT22;5161;48.174;11.756;2023-04-25T15:42:37;10.40;71.60
10233;DHT22;5161;48.174;11.756;2023-04-25T15:45:07;10.50;71.20
10233;DHT22;5161;48.174;11.756;2023-04-25T15:47:34;10.40;71.40
10233;DHT22;5161;48.174;11.756;2023-04-25T15:50:00;10.40;71.50
10233;DHT22;5161;48.174;11.756;2023-04-25T15:52:26;10.30;71.20
10233;DHT22;5161;48.174;11.756;2023-04-25T15:54:52;10.40;71.20
10233;DHT22;5161;48.174;11.756;2023-04-25T15:57:18;10.40;71.40
10233;DHT22;5161;48.174;11.756;2023-04-25T15:59:43;10.40;71.00
10233;DHT22;5161;48.174;11.756;2023-04-25T16:02:09;10.30;71.00
10233;DHT22;5161;48.174;11.756;2023-04-25T16:04:35;10.30;71.10
10233;DHT22;5161;48.174;11.756;2023-04-25T16:07:01;10.30;71.20
10233;DHT22;5161;48.174;11.756;2023-04-25T16:09:28;10.30;71.20
10233;DHT22;5161;48.174;11.756;2023-04-25T16:11:53;10.30;71.20
10233;DHT22;5161;48.174;11.756;2023-04-25T16:14:19;10.30;71.20
10233;DHT22;5161;48.174;11.756;2023-04-25T16:16:45;10.30;71.20
10233;DHT22;5161;48.174;11.756;2023-04-25T16:19:11;10.30;71.30
10233;DHT22;5161;48.174;11.756;2023-04-25T16:21:36;10.30;71.50